Time;durP1;ratioP1;P1;durP2;ratioP2;P2;SDS_P1;SDS_P2;PMS_P1;PMS_P2;Temp;Humidity;BMP_temperature;BMP_pressure;BME280_temperature;BME280_humidity;BME280_pressure;Samples;Min_cycle;Max_cycle;Signal;HPM_P1;HPM_P2
2023/07/15 00:01:34;;;;;;;6.93;5.20;;;18.40;73.50;;;;;;4958072;28;20058;-89
2023/07/15 00:04:00;;;;;;;8.70;5.00;;;18.40;73.50;;;;;;4955786;28;20046;-89
2023/07/15 00:06:26;;;;;;;8.15;5.60;;;18.40;73.50;;;;;;4922515;28;20064;-91
2023/07/15 00:08:56;;;;;;;8.40;5.78;;;18.40;73.50;;;;;;4950697;28;20046;-90
2023/07/15 00:11:31;;;;;;;9.05;5.35;;;18.40;73.50;;;;;;4953915;28;20042;-90
2023/07/15 00:13:58;;;;;;;10.95;5.47;;;18.40;73.50;;;;;;4946109;28;20109;-89
2023/07/15 00:16:25;;;;;;;6.95;5.32;;;18.40;73.40;;;;;;4966875;28;20090;-89
2023/07/15 00:18:51;;;;;;;8.15;5.15;;;18.40;73.30;;;;;;4965312;28;20112;-90
2023/07/15 00:21:20;;;;;;;7.72;4.90;;;18.40;73.20;;;;;;4953567;28;20043;-90
2023/07/15 00:23:48;;;;;;;8.32;4.95;;;18.40;73.00;;;;;;4952879;28;20491;-89
2023/07/15 00:26:15;;;;;;;8.20;4.80;;;18.40;73.00;;;;;;4968678;28;20391;-90
2023/07/15 00:28:41;;;;;;;9.73;4.47;;;18.40;72.70;;;;;;4947384;28;20701;-89
2023/07/15 00:31:15;;;;;;;7.40;4.43;;;18.50;72.60;;;;;;4953644;28;20134;-88
2023/07/15 00:33:47;;;;;;;9.23;4.53;;;18.50;72.30;;;;;;4955294;28;20104;-89
2023/07/15 00:36:16;;;;;;;9.93;5.10;;;18.50;72.20;;;;;;4952624;28;20081;-88
2023/07/15 00:38:42;;;;;;;8.90;4.07;;;18.60;72.00;;;;;;4948993;28;20057;-88
2023/07/15 00:41:30;;;;;;;7.70;4.47;;;18.60;71.90;;;;;;4944229;28;20046;-89
2023/07/15 00:43:58;;;;;;;9.32;4.13;;;18.60;71.60;;;;;;4951852;28;20038;-90
2023/07/15 00:46:45;;;;;;;9.00;4.40;;;18.60;71.70;;;;;;4950483;28;20089;-89
2023/07/15 00:49:11;;;;;;;9.70;4.72;;;18.70;71.60;;;;;;4933479;28;20073;-89
2023/07/15 00:51:51;;;;;;;10.07;4.43;;;18.60;71.60;;;;;;4944205;28;20046;-90
2023/07/15 00:54:18;;;;;;;8.40;4.05;;;18.70;71.50;;;;;;4953334;28;20050;-89
2023/07/15 00:56:45;;;;;;;7.47;3.80;;;18.60;71.60;;;;;;4948081;28;20727;-90
2023/07/15 00:59:15;;;;;;;7.75;3.70;;;18.70;71.50;;;;;;4934961;28;20047;-89
2023/07/15 01:01:41;;;;;;;5.88;4.05;;;18.60;71.50;;;;;;4953384;28;20051;-89
2023/07/15 01:04:07;;;;;;;9.55;4.15;;;18.70;71.40;;;;;;4922547;28;20137;-90
2023/07/15 01:06:35;;;;;;;6.93;4.30;;;18.70;71.20;;;;;;4936650;28;20142;-89
2023/07/15 01:09:05;;;;;;;6.80;3.60;;;18.70;71.10;;;;;;4953300;28;20062;-89
2023/07/15 01:11:35;;;;;;;6.22;3.92;;;18.80;71.00;;;;;;4940556;28;20153;-90
2023/07/15 01:14:05;;;;;;;7.13;3.80;;;18.80;70.90;;;;;;4920140;28;20508;-89
2023/07/15 01:16:32;;;;;;;9.55;3.95;;;18.80;70.90;;;;;;4920225;28;20125;-90
2023/07/15 01:18:58;;;;;;;7.15;3.58;;;18.80;70.90;;;;;;4938835;28;20046;-90
2023/07/15 01:21:28;;;;;;;8.60;4.30;;;18.90;70.90;;;;;;4964190;28;20120;-89
2023/07/15 01:23:56;;;;;;;6.43;3.60;;;18.80;71.00;;;;;;4953380;28;20326;-89
2023/07/15 01:26:21;;;;;;;8.20;3.85;;;18.80;71.00;;;;;;4954087;28;20053;-89
2023/07/15 01:28:50;;;;;;;6.07;3.97;;;18.80;70.90;;;;;;4950995;28;20047;-90
2023/07/15 01:31:19;;;;;;;6.47;4.00;;;18.80;71.00;;;;;;4955746;28;20049;-90
2023/07/15 01:33:47;;;;;;;7.88;3.65;;;18.80;70.90;;;;;;4954621;28;20484;-90
2023/07/15 01:36:15;;;;;;;6.50;3.70;;;18.80;70.80;;;;;;4961024;28;20132;-90
2023/07/15 01:38:41;;;;;;;8.93;4.30;;;18.80;70.80;;;;;;4951628;28;20465;-89
2023/07/15 01:41:07;;;;;;;6.80;3.72;;;18.80;70.70;;;;;;4940608;28;20137;-89
2023/07/15 01:43:33;;;;;;;5.68;3.75;;;18.70;70.70;;;;;;4954266;28;20050;-89
2023/07/15 01:45:59;;;;;;;8.77;4.05;;;18.70;70.50;;;;;;4943043;28;20105;-90
2023/07/15 01:48:25;;;;;;;9.55;4.10;;;18.80;70.60;;;;;;4948799;28;20166;-89
2023/07/15 01:50:52;;;;;;;7.38;3.97;;;18.70;70.70;;;;;;4957609;28;20053;-90
2023/07/15 01:53:18;;;;;;;6.32;3.67;;;18.70;70.90;;;;;;4942700;28;20050;-89
2023/07/15 01:55:46;;;;;;;6.30;3.53;;;18.70;71.10;;;;;;4959827;28;20049;-89
2023/07/15 01:58:14;;;;;;;7.35;3.47;;;18.60;70.90;;;;;;4967527;28;20472;-90
2023/07/15 02:00:42;;;;;;;5.80;3.58;;;18.60;71.10;;;;;;4976383;28;20093;-89
2023/07/15 02:03:09;;;;;;;6.25;3.67;;;18.60;71.10;;;;;;4957962;28;20169;-90
2023/07/15 02:05:35;;;;;;;5.78;3.90;;;18.60;71.20;;;;;;4963476;28;20050;-89
2023/07/15 02:08:01;;;;;;;7.20;4.22;;;18.50;71.10;;;;;;4960749;28;20057;-89
2023/07/15 02:10:30;;;;;;;5.72;3.42;;;18.50;71.00;;;;;;4975584;28;20161;-89
2023/07/15 02:12:55;;;;;;;6.45;3.35;;;18.50;70.80;;;;;;4927263;28;20565;-89
2023/07/15 02:15:21;;;;;;;7.55;3.65;;;18.50;70.80;;;;;;4940270;28;20082;-89
2023/07/15 02:17:50;;;;;;;8.00;3.53;;;18.50;70.80;;;;;;4930150;28;20534;-90
2023/07/15 02:20:16;;;;;;;6.63;3.40;;;18.40;70.70;;;;;;4959237;28;20054;-90
2023/07/15 02:22:42;;;;;;;5.90;3.35;;;18.40;70.40;;;;;;4954023;28;20053;-90
2023/07/15 02:25:08;;;;;;;6.75;3.22;;;18.40;70.40;;;;;;4942339;28;20045;-90
2023/07/15 02:27:37;;;;;;;5.25;3.72;;;18.50;70.20;;;;;;4952066;28;20046;-89
2023/07/15 02:30:08;;;;;;;8.77;3.25;;;18.50;70.20;;;;;;4958989;28;20049;-90
2023/07/15 02:32:36;;;;;;;6.22;3.50;;;18.50;70.30;;;;;;4954528;28;20114;-90
2023/07/15 02:35:03;;;;;;;10.60;3.13;;;18.40;70.20;;;;;;4957559;28;20423;-90
2023/07/15 02:37:31;;;;;;;6.80;3.10;;;18.50;70.00;;;;;;4953142;28;20054;-90
2023/07/15 02:39:57;;;;;;;8.75;3.20;;;18.50;69.60;;;;;;4945839;28;20046;-90
2023/07/15 02:42:25;;;;;;;7.53;3.30;;;18.60;69.30;;;;;;4952010;28;20047;-90
2023/07/15 02:44:54;;;;;;;6.50;2.97;;;18.60;69.00;;;;;;4931790;28;20184;-90
2023/07/15 02:47:22;;;;;;;5.07;2.78;;;18.70;68.70;;;;;;4951335;28;20140;-89
2023/07/15 02:49:48;;;;;;;6.30;2.90;;;18.70;68.40;;;;;;4958265;28;20511;-91
2023/07/15 02:52:16;;;;;;;5.95;3.10;;;18.80;68.30;;;;;;4957033;28;20073;-89
2023/07/15 02:54:45;;;;;;;5.47;3.00;;;18.90;67.90;;;;;;4963949;28;20042;-89
2023/07/15 02:57:13;;;;;;;7.18;2.70;;;19.00;67.80;;;;;;4940805;28;20514;-90
2023/07/15 02:59:39;;;;;;;3.72;2.50;;;19.00;67.70;;;;;;4958426;28;20054;-90
2023/07/15 03:02:10;;;;;;;6.97;2.63;;;19.10;67.40;;;;;;4951236;28;20053;-90
2023/07/15 03:04:39;;;;;;;5.72;2.83;;;19.10;67.40;;;;;;4934406;29;20051;-90
2023/07/15 03:07:05;;;;;;;11.02;2.60;;;19.10;67.30;;;;;;4951401;28;20047;-88
2023/07/15 03:09:31;;;;;;;5.88;2.88;;;19.10;67.20;;;;;;4970935;28;20043;-90
2023/07/15 03:12:05;;;;;;;6.38;2.33;;;19.20;67.10;;;;;;4974338;28;20050;-89
2023/07/15 03:14:31;;;;;;;6.70;2.53;;;19.20;66.90;;;;;;4941111;28;20062;-89
2023/07/15 03:16:57;;;;;;;7.20;2.60;;;19.20;66.80;;;;;;4952449;28;20042;-89
2023/07/15 03:19:23;;;;;;;5.75;2.55;;;19.20;66.60;;;;;;4958422;28;20046;-90
2023/07/15 03:21:52;;;;;;;7.45;2.67;;;19.20;66.60;;;;;;4958411;28;20482;-89
2023/07/15 03:24:22;;;;;;;8.50;2.67;;;19.30;66.20;;;;;;4956792;28;20054;-89
2023/07/15 03:26:47;;;;;;;5.13;2.50;;;19.30;66.10;;;;;;4936574;28;20208;-90
2023/07/15 03:29:16;;;;;;;5.88;2.50;;;19.30;66.10;;;;;;4922309;28;20126;-90
2023/07/15 03:31:42;;;;;;;5.32;2.50;;;19.30;66.20;;;;;;4942190;28;20105;-90
2023/07/15 03:34:08;;;;;;;5.57;2.25;;;19.30;66.30;;;;;;4968710;28;20051;-90
2023/07/15 03:36:36;;;;;;;7.50;2.58;;;19.30;66.20;;;;;;4934785;28;20038;-91
2023/07/15 03:39:05;;;;;;;6.72;2.38;;;19.30;66.20;;;;;;4938030;28;20043;-90
2023/07/15 03:41:42;;;;;;;;;;;;;;;;;;;;;
2023/07/15 03:44:11;;;;;;;9.25;2.72;;;19.10;66.50;;;;;;4948229;28;20479;-89
2023/07/15 03:46:40;;;;;;;8.02;2.58;;;19.10;66.80;;;;;;4953023;28;20046;-90
2023/07/15 03:49:07;;;;;;;7.05;2.40;;;19.00;66.90;;;;;;4937615;28;20054;-90
2023/07/15 03:51:36;;;;;;;7.55;2.67;;;19.00;66.70;;;;;;4939251;28;20058;-90
2023/07/15 03:54:05;;;;;;;6.10;2.55;;;19.00;66.50;;;;;;4949633;28;20051;-89
2023/07/15 03:56:32;;;;;;;6.57;2.60;;;19.00;66.60;;;;;;4952539;28;20045;-90
2023/07/15 03:59:05;;;;;;;5.38;2.40;;;19.00;66.60;;;;;;4954104;28;20054;-88
2023/07/15 04:01:31;;;;;;;5.22;2.30;;;19.00;66.80;;;;;;4957840;28;20050;-90
2023/07/15 04:03:57;;;;;;;5.05;2.63;;;18.90;66.80;;;;;;4955716;28;20557;-90
2023/07/15 04:06:23;;;;;;;7.18;2.53;;;18.90;66.90;;;;;;4958499;28;20051;-92
2023/07/15 04:08:51;;;;;;;4.78;2.17;;;18.90;66.80;;;;;;4959194;28;20047;-88
2023/07/15 04:11:19;;;;;;;6.43;2.70;;;18.90;67.00;;;;;;4973410;28;20578;-88
2023/07/15 04:13:48;;;;;;;9.98;2.95;;;18.80;67.10;;;;;;4955131;28;20086;-88
2023/07/15 04:16:14;;;;;;;11.88;2.70;;;18.80;67.10;;;;;;4955626;28;20078;-90
2023/07/15 04:18:42;;;;;;;11.20;2.47;;;18.70;67.20;;;;;;4952345;28;20046;-89
2023/07/15 04:21:11;;;;;;;;;;;18.70;67.40;;;;;;4958213;28;20046;-88
2023/07/15 04:23:47;;;;;;;7.10;2.50;;;18.70;67.80;;;;;;4971841;28;20008;-88
2023/07/15 04:26:19;;;;;;;4.82;2.80;;;18.60;67.80;;;;;;4956040;28;20470;-91
2023/07/15 04:28:45;;;;;;;6.25;2.28;;;18.60;68.20;;;;;;4930913;28;20042;-88
2023/07/15 04:31:11;;;;;;;9.25;2.50;;;18.60;68.10;;;;;;4955234;28;20138;-88
2023/07/15 04:33:47;;;;;;;;;;;;;;;;;;;;;
2023/07/15 04:36:22;;;;;;;4.40;2.83;;;18.60;68.40;;;;;;4955729;28;20098;-89
2023/07/15 04:38:51;;;;;;;7.38;3.17;;;18.60;68.30;;;;;;4953136;28;20060;-89
2023/07/15 04:41:17;;;;;;;4.40;2.55;;;18.50;68.20;;;;;;4941633;28;20050;-89
2023/07/15 04:43:43;;;;;;;6.35;2.63;;;18.60;68.40;;;;;;4951834;28;20058;-89
2023/07/15 04:46:12;;;;;;;6.82;2.70;;;18.60;68.50;;;;;;4939265;28;20090;-88
2023/07/15 04:48:39;;;;;;;8.45;2.70;;;18.60;68.30;;;;;;4942717;28;20046;-88
2023/07/15 04:51:07;;;;;;;5.68;2.88;;;18.70;68.50;;;;;;4966827;28;20051;-89
2023/07/15 04:53:42;;;;;;;5.07;2.60;;;18.70;68.50;;;;;;4961879;28;20054;-89
2023/07/15 04:56:11;;;;;;;7.53;2.53;;;18.70;68.70;;;;;;4972077;28;20103;-89
2023/07/15 04:58:38;;;;;;;6.68;2.70;;;18.70;68.80;;;;;;4940320;28;20057;-89
2023/07/15 05:01:27;;;;;;;6.22;2.80;;;18.80;68.90;;;;;;4956329;28;20050;-89
2023/07/15 05:03:56;;;;;;;6.63;3.17;;;18.80;69.00;;;;;;4940486;28;20128;-88
2023/07/15 05:06:25;;;;;;;4.95;2.55;;;18.90;68.70;;;;;;4937473;28;20085;-90
2023/07/15 05:08:55;;;;;;;9.02;3.03;;;19.00;68.90;;;;;;4927116;28;20043;-89
2023/07/15 05:11:24;;;;;;;7.70;2.83;;;19.00;68.80;;;;;;4969799;28;20068;-89
2023/07/15 05:13:50;;;;;;;9.50;3.15;;;19.10;68.90;;;;;;4956328;28;20060;-88
2023/07/15 05:16:16;;;;;;;9.77;2.92;;;19.10;68.90;;;;;;4952580;28;20125;-88
2023/07/15 05:18:44;;;;;;;9.00;3.10;;;19.20;69.20;;;;;;4935034;28;20735;-89
2023/07/15 05:21:14;;;;;;;8.05;2.42;;;19.30;69.20;;;;;;4955886;28;20061;-88
2023/07/15 05:23:40;;;;;;;6.47;2.75;;;19.40;69.10;;;;;;4942433;28;20054;-88
2023/07/15 05:26:09;;;;;;;6.05;2.97;;;19.50;69.20;;;;;;4956809;28;20053;-89
2023/07/15 05:28:38;;;;;;;6.43;3.05;;;19.50;69.20;;;;;;4910590;28;20482;-89
2023/07/15 05:31:06;;;;;;;8.00;3.20;;;19.70;69.20;;;;;;4955478;28;20046;-89
2023/07/15 05:33:35;;;;;;;5.25;2.65;;;19.70;69.20;;;;;;4934238;28;20055;-89
2023/07/15 05:36:02;;;;;;;7.32;2.80;;;19.80;69.30;;;;;;4962427;28;20081;-88
2023/07/15 05:38:28;;;;;;;5.63;2.83;;;19.90;69.00;;;;;;4968113;28;20287;-89
2023/07/15 05:41:02;;;;;;;4.15;2.92;;;20.00;68.90;;;;;;4957873;28;20046;-89
2023/07/15 05:43:28;;;;;;;7.88;2.88;;;20.10;68.90;;;;;;4965101;28;20051;-88
2023/07/15 05:45:57;;;;;;;10.13;3.45;;;20.20;68.60;;;;;;4952121;28;20058;-92
2023/07/15 05:48:51;;;;;;;5.68;2.85;;;20.30;68.40;;;;;;4934365;28;20133;-92
2023/07/15 05:51:57;;;;;;;10.88;3.47;;;20.50;68.20;;;;;;4960148;28;20569;-92
2023/07/15 05:54:44;;;;;;;7.35;3.20;;;20.50;67.90;;;;;;4983267;28;20730;-91
2023/07/15 05:57:18;;;;;;;7.30;3.30;;;20.60;67.70;;;;;;4933290;28;20733;-92
2023/07/15 05:59:58;;;;;;;5.78;3.10;;;20.70;67.70;;;;;;4951265;28;20133;-92
2023/07/15 06:02:27;;;;;;;9.18;2.95;;;20.80;67.60;;;;;;4959436;28;20043;-92
2023/07/15 06:04:59;;;;;;;9.35;3.58;;;20.80;67.50;;;;;;4939514;28;20432;-92
2023/07/15 06:07:24;;;;;;;7.78;3.08;;;20.90;67.50;;;;;;4953958;28;20046;-92
2023/07/15 06:09:54;;;;;;;5.18;2.90;;;20.90;67.50;;;;;;4972412;28;20042;-92
2023/07/15 06:12:22;;;;;;;10.05;2.90;;;20.90;67.50;;;;;;4952804;28;20739;-92
2023/07/15 06:14:53;;;;;;;10.25;2.72;;;21.00;67.70;;;;;;4958343;28;20053;-89
2023/07/15 06:17:44;;;;;;;9.60;3.25;;;21.00;67.80;;;;;;4952373;28;20085;-90
2023/07/15 06:22:56;;;;;;;9.35;3.03;;;21.10;68.40;;;;;;4937195;28;20046;-91
2023/07/15 06:25:22;;;;;;;7.68;2.72;;;21.10;68.80;;;;;;4958148;28;20050;-91
2023/07/15 06:28:11;;;;;;;7.25;2.85;;;21.10;69.30;;;;;;4941095;28;20195;-90
2023/07/15 06:30:37;;;;;;;6.03;2.85;;;21.10;70.00;;;;;;4955346;28;20054;-90
2023/07/15 06:33:41;;;;;;;6.38;3.10;;;21.20;69.70;;;;;;4927263;28;20097;-93
2023/07/15 06:39:52;;;;;;;6.93;2.72;;;21.30;69.90;;;;;;4957616;28;20114;-91
2023/07/15 06:45:48;;;;;;;;;;;;;;;;;;;;;
2023/07/15 06:52:04;;;;;;;;;;;;;;;;;;;;;
2023/07/15 06:55:29;;;;;;;7.95;2.78;;;21.50;70.00;;;;;;4942055;28;20126;-91
2023/07/15 06:58:35;;;;;;;8.07;2.50;;;21.60;70.00;;;;;;4910169;28;20051;-91
2023/07/15 07:01:08;;;;;;;7.07;3.00;;;21.70;69.20;;;;;;4919030;29;20064;-91
2023/07/15 07:03:47;;;;;;;;;;;;;;;;;;;;;
2023/07/15 07:06:20;;;;;;;5.95;2.78;;;21.70;69.00;;;;;;4916818;29;20059;-92
2023/07/15 07:08:56;;;;;;;;;;;;;;;;;;;;;
2023/07/15 07:15:15;;;;;;;4.82;2.70;;;21.90;68.90;;;;;;4922992;29;20527;-91
2023/07/15 07:17:41;;;;;;;4.75;2.60;;;21.90;68.60;;;;;;4904038;29;20146;-90
2023/07/15 07:20:10;;;;;;;4.30;2.70;;;21.90;68.90;;;;;;4921041;29;20055;-91
2023/07/15 07:22:39;;;;;;;5.57;2.28;;;22.00;69.10;;;;;;4904954;29;20063;-91
2023/07/15 07:25:49;;;;;;;3.95;2.47;;;22.10;69.00;;;;;;4911082;29;20419;-92
2023/07/15 07:28:58;;;;;;;6.68;1.77;;;22.20;68.20;;;;;;4893529;28;20117;-91
2023/07/15 07:31:36;;;;;;;;;;;;;;;;;;;;;
2023/07/15 07:35:32;;;;;;;5.80;2.20;;;22.10;68.70;;;;;;4939544;28;20047;-93
2023/07/15 07:38:44;;;;;;;7.22;2.33;;;22.00;69.40;;;;;;4923088;29;20159;-91
2023/07/15 07:42:03;;;;;;;6.55;2.30;;;21.90;68.60;;;;;;4883050;29;20047;-92
2023/07/15 07:52:28;;;;;;;5.53;1.92;;;22.00;68.40;;;;;;4877639;29;20124;-92
2023/07/15 07:55:57;;;;;;;6.72;2.40;;;22.10;67.80;;;;;;4921964;28;20054;-93
2023/07/15 08:13:08;;;;;;;5.55;2.03;;;22.50;66.90;;;;;;4875425;29;20076;-94
2023/07/15 08:35:24;;;;;;;;;;;;;;;;;;;;;
2023/07/15 09:06:27;;;;;;;;;;;;;;;;;;;;;
2023/07/15 09:17:17;;;;;;;4.78;0.88;;;23.50;65.80;;;;;;4760841;29;20108;-89
2023/07/15 09:19:46;;;;;;;2.75;1.25;;;23.60;66.00;;;;;;4851286;29;20060;-87
2023/07/15 09:22:12;;;;;;;2.65;1.05;;;23.80;65.90;;;;;;4905714;29;20492;-89
2023/07/15 09:24:39;;;;;;;1.48;0.85;;;23.80;65.50;;;;;;4951351;29;20488;-88
2023/07/15 09:27:05;;;;;;;2.10;0.95;;;23.60;65.50;;;;;;4929453;28;20640;-88
2023/07/15 09:29:32;;;;;;;3.10;0.80;;;23.60;65.40;;;;;;4953943;28;20121;-88
2023/07/15 09:31:58;;;;;;;1.52;0.80;;;23.60;65.30;;;;;;4956424;28;20046;-88
2023/07/15 09:34:24;;;;;;;1.40;0.82;;;23.50;65.10;;;;;;4948578;28;20126;-90
2023/07/15 09:36:51;;;;;;;3.80;1.15;;;23.40;65.30;;;;;;4963979;28;20039;-87
2023/07/15 09:39:19;;;;;;;1.50;0.90;;;23.30;65.40;;;;;;4960032;28;20050;-87
2023/07/15 09:42:02;;;;;;;3.75;0.90;;;23.20;65.30;;;;;;4948772;28;20047;-88
2023/07/15 09:44:39;;;;;;;2.92;1.00;;;23.10;65.40;;;;;;4931777;29;20050;-88
2023/07/15 09:47:06;;;;;;;4.28;1.20;;;23.00;65.00;;;;;;4919208;28;20044;-89
2023/07/15 09:49:32;;;;;;;2.50;0.98;;;22.90;65.20;;;;;;4948225;28;20055;-87
2023/07/15 09:51:59;;;;;;;3.00;0.98;;;22.90;65.30;;;;;;4934444;28;20495;-89
2023/07/15 09:54:28;;;;;;;2.20;1.02;;;22.90;65.40;;;;;;4921403;29;20102;-86
2023/07/15 09:57:03;;;;;;;2.97;0.82;;;22.90;65.40;;;;;;4929714;29;20150;-88
2023/07/15 09:59:34;;;;;;;3.17;1.17;;;23.00;65.30;;;;;;4933963;29;20109;-87
2023/07/15 10:02:11;;;;;;;2.88;1.15;;;23.00;65.40;;;;;;4934702;29;20118;-86
2023/07/15 10:04:43;;;;;;;2.65;0.98;;;23.00;65.20;;;;;;4948306;28;20047;-87
2023/07/15 10:07:09;;;;;;;3.58;1.05;;;23.00;65.70;;;;;;4944396;28;20043;-87
2023/07/15 10:09:36;;;;;;;3.28;0.88;;;23.00;65.60;;;;;;4941953;29;20095;-87
2023/07/15 10:12:02;;;;;;;5.60;1.17;;;23.10;66.20;;;;;;4936797;29;20058;-86
2023/07/15 10:14:31;;;;;;;3.53;1.20;;;23.20;65.70;;;;;;4972837;28;20051;-87
2023/07/15 10:17:14;;;;;;;2.63;1.30;;;23.30;65.90;;;;;;4955499;28;20097;-87
2023/07/15 10:19:51;;;;;;;2.90;1.15;;;23.40;66.60;;;;;;4920420;29;20043;-87
2023/07/15 10:22:20;;;;;;;3.72;1.00;;;23.50;66.10;;;;;;4938546;28;20078;-87
2023/07/15 10:24:55;;;;;;;5.13;1.48;;;23.70;66.10;;;;;;4958720;28;20050;-88
2023/07/15 10:27:25;;;;;;;3.22;1.33;;;23.80;65.70;;;;;;4949558;28;20043;-88
2023/07/15 10:30:18;;;;;;;1.90;1.15;;;23.90;65.70;;;;;;4952728;28;20067;-88
2023/07/15 10:33:10;;;;;;;2.38;1.30;;;24.00;66.00;;;;;;4954747;28;20039;-89
2023/07/15 10:35:42;;;;;;;3.47;1.50;;;24.00;65.90;;;;;;4950047;28;20066;-87
2023/07/15 10:38:24;;;;;;;2.13;1.50;;;24.00;65.60;;;;;;4950739;28;20050;-88
2023/07/15 10:41:04;;;;;;;3.50;1.48;;;24.00;65.40;;;;;;4956662;28;20078;-87
2023/07/15 10:43:39;;;;;;;3.47;1.33;;;24.00;65.90;;;;;;4957008;28;20051;-89
2023/07/15 10:46:06;;;;;;;3.75;1.70;;;24.00;65.80;;;;;;4954808;28;20039;-91
2023/07/15 10:48:32;;;;;;;2.28;1.67;;;24.00;65.90;;;;;;4960514;28;20054;-90
2023/07/15 10:51:04;;;;;;;2.38;1.50;;;24.00;65.80;;;;;;4989371;28;20137;-86
2023/07/15 10:53:30;;;;;;;5.65;1.73;;;24.00;65.40;;;;;;4975727;28;20062;-86
2023/07/15 10:56:09;;;;;;;3.38;1.65;;;24.10;65.70;;;;;;4977714;28;20123;-85
2023/07/15 10:58:35;;;;;;;2.80;1.52;;;24.20;65.30;;;;;;4972781;28;20050;-86
2023/07/15 11:01:08;;;;;;;3.53;1.70;;;24.20;65.60;;;;;;4978069;28;20054;-86
2023/07/15 11:03:36;;;;;;;4.13;1.50;;;24.40;66.00;;;;;;4977118;28;20145;-86
2023/07/15 11:06:03;;;;;;;2.10;1.73;;;24.40;65.80;;;;;;4958777;28;20109;-87
2023/07/15 11:08:30;;;;;;;4.85;1.55;;;24.40;65.50;;;;;;4951571;28;20073;-86
2023/07/15 11:11:07;;;;;;;4.15;1.45;;;24.30;65.40;;;;;;4971036;28;20058;-86
2023/07/15 11:13:37;;;;;;;2.78;1.80;;;24.30;65.80;;;;;;4976958;28;20042;-87
2023/07/15 11:16:06;;;;;;;3.77;1.77;;;24.40;65.20;;;;;;4961909;28;20062;-86
2023/07/15 11:18:34;;;;;;;2.97;2.10;;;24.50;65.60;;;;;;4990839;28;20320;-86
2023/07/15 11:21:00;;;;;;;4.68;1.42;;;24.70;65.20;;;;;;4961772;28;20050;-86
2023/07/15 11:23:30;;;;;;;2.42;1.35;;;24.80;65.10;;;;;;4976331;28;20105;-87
2023/07/15 11:25:57;;;;;;;5.43;1.73;;;24.80;64.70;;;;;;4978631;28;20058;-87
2023/07/15 11:28:23;;;;;;;2.88;1.58;;;24.80;64.60;;;;;;4973729;28;20042;-86
2023/07/15 11:30:51;;;;;;;5.10;2.13;;;24.80;64.60;;;;;;4973709;28;20178;-86
2023/07/15 11:33:19;;;;;;;3.15;1.85;;;24.70;64.50;;;;;;4976654;28;20161;-86
2023/07/15 11:35:46;;;;;;;3.17;1.88;;;24.70;65.00;;;;;;4977725;28;20132;-87
2023/07/15 11:38:15;;;;;;;4.32;1.88;;;24.70;65.10;;;;;;4974942;28;20192;-86
2023/07/15 11:40:54;;;;;;;4.40;1.95;;;24.70;65.10;;;;;;4978094;28;20062;-86
2023/07/15 11:43:22;;;;;;;6.43;1.92;;;24.70;65.90;;;;;;4994721;28;20573;-86
2023/07/15 11:45:48;;;;;;;5.43;2.15;;;24.60;65.40;;;;;;4976503;28;20059;-85
2023/07/15 11:48:25;;;;;;;4.30;1.80;;;24.60;65.50;;;;;;4969100;28;20065;-86
2023/07/15 11:50:55;;;;;;;4.00;2.35;;;24.60;65.50;;;;;;4967258;28;20475;-86
2023/07/15 11:53:23;;;;;;;3.30;1.98;;;24.70;65.60;;;;;;4992998;28;20398;-85
2023/07/15 11:55:49;;;;;;;4.00;2.13;;;24.80;65.50;;;;;;4976229;28;20103;-91
2023/07/15 11:58:46;;;;;;;3.30;1.60;;;25.00;65.50;;;;;;4992746;28;20058;-85
2023/07/15 12:01:23;;;;;;;3.47;1.90;;;25.00;64.70;;;;;;4971687;28;20046;-86
2023/07/15 12:03:49;;;;;;;2.67;1.73;;;24.70;64.70;;;;;;4986191;28;20054;-85
2023/07/15 12:06:20;;;;;;;2.80;1.77;;;24.60;65.40;;;;;;4957048;28;20113;-92
2023/07/15 12:09:07;;;;;;;3.47;1.58;;;24.50;65.20;;;;;;4969676;28;20047;-88
2023/07/15 12:11:33;;;;;;;4.03;1.80;;;24.50;65.30;;;;;;4974583;28;20089;-86
2023/07/15 12:14:00;;;;;;;3.92;1.67;;;24.40;66.00;;;;;;4987227;28;20053;-86
2023/07/15 12:16:27;;;;;;;2.63;1.73;;;24.40;66.00;;;;;;4967247;28;20244;-91
2023/07/15 12:18:53;;;;;;;4.57;1.60;;;24.40;66.20;;;;;;4977799;28;20052;-86
2023/07/15 12:21:19;;;;;;;3.53;1.73;;;24.40;66.50;;;;;;4971592;28;20042;-85
2023/07/15 12:23:45;;;;;;;3.63;1.80;;;24.30;66.30;;;;;;4975225;28;20047;-86
2023/07/15 12:26:11;;;;;;;3.60;1.80;;;24.20;66.70;;;;;;4985716;28;20041;-91
2023/07/15 12:28:37;;;;;;;4.85;1.83;;;24.20;66.50;;;;;;4975263;28;20471;-84
2023/07/15 12:31:03;;;;;;;3.88;2.00;;;24.20;66.70;;;;;;4977887;28;20077;-87
2023/07/15 12:33:29;;;;;;;5.65;1.85;;;24.00;66.60;;;;;;4977761;28;20066;-86
2023/07/15 12:35:54;;;;;;;4.13;1.83;;;24.00;66.60;;;;;;4975594;28;20076;-88
2023/07/15 12:38:20;;;;;;;4.03;2.00;;;24.00;66.60;;;;;;4970949;28;20049;-87
2023/07/15 12:40:46;;;;;;;2.95;1.90;;;24.00;66.60;;;;;;4971315;28;20478;-88
2023/07/15 12:43:13;;;;;;;3.97;1.58;;;23.90;66.60;;;;;;4972910;28;20483;-87
2023/07/15 12:45:38;;;;;;;3.53;1.70;;;23.80;66.70;;;;;;4990736;28;20837;-92
2023/07/15 12:48:05;;;;;;;4.38;1.90;;;23.90;66.70;;;;;;4953510;28;20046;-85
2023/07/15 12:50:31;;;;;;;2.25;1.60;;;24.00;66.70;;;;;;4972885;28;20077;-87
2023/07/15 12:52:57;;;;;;;5.90;1.75;;;24.10;66.40;;;;;;4973688;28;20430;-87
2023/07/15 12:55:22;;;;;;;4.07;1.60;;;24.20;66.40;;;;;;4973424;28;20050;-92
2023/07/15 12:57:49;;;;;;;3.60;1.63;;;24.50;65.80;;;;;;4965829;28;20089;-86
2023/07/15 13:00:15;;;;;;;1.92;1.58;;;24.70;65.40;;;;;;4966971;28;20094;-86
2023/07/15 13:02:42;;;;;;;2.00;1.70;;;24.80;65.60;;;;;;4963587;28;20124;-87
2023/07/15 13:05:08;;;;;;;3.33;1.60;;;24.90;65.40;;;;;;4963223;28;20057;-87
2023/07/15 13:07:34;;;;;;;4.22;1.60;;;24.90;65.30;;;;;;4989263;28;20137;-88
2023/07/15 13:10:00;;;;;;;2.53;1.80;;;24.80;65.40;;;;;;4980584;28;20130;-87
2023/07/15 13:12:28;;;;;;;2.08;1.45;;;24.60;65.20;;;;;;4955741;28;20099;-87
2023/07/15 13:14:54;;;;;;;6.22;1.63;;;24.40;65.50;;;;;;4972110;28;20053;-88
2023/07/15 13:17:23;;;;;;;2.70;1.60;;;24.40;65.60;;;;;;4977338;28;20046;-87
2023/07/15 13:19:51;;;;;;;4.30;1.90;;;24.20;65.70;;;;;;4976265;28;20054;-87
2023/07/15 13:22:16;;;;;;;4.43;1.77;;;24.20;65.90;;;;;;4974101;28;20047;-87
2023/07/15 13:24:44;;;;;;;3.38;1.80;;;24.10;66.30;;;;;;4973888;28;20047;-87
2023/07/15 13:27:12;;;;;;;4.72;1.73;;;24.10;66.20;;;;;;4977677;28;20483;-87
2023/07/15 13:29:38;;;;;;;3.08;1.73;;;24.10;66.30;;;;;;4975396;28;20042;-88
2023/07/15 13:32:05;;;;;;;3.67;1.80;;;24.20;66.00;;;;;;4975228;28;20069;-88
2023/07/15 13:34:30;;;;;;;2.47;1.70;;;24.20;65.60;;;;;;4974968;28;20121;-87
2023/07/15 13:36:56;;;;;;;3.88;1.73;;;24.30;65.60;;;;;;4972538;28;20559;-87
2023/07/15 13:39:36;;;;;;;4.45;1.45;;;24.30;65.40;;;;;;4959699;28;20046;-87
2023/07/15 13:42:04;;;;;;;2.20;1.60;;;24.40;65.10;;;;;;4969210;28;20046;-88
2023/07/15 13:44:31;;;;;;;2.15;1.67;;;24.40;65.30;;;;;;4956716;28;20081;-86
2023/07/15 13:46:57;;;;;;;4.68;1.95;;;24.50;65.40;;;;;;4977420;28;20137;-88
2023/07/15 13:49:43;;;;;;;3.20;1.85;;;24.50;65.20;;;;;;4979031;28;20129;-87
2023/07/15 13:52:09;;;;;;;3.35;1.63;;;24.70;65.30;;;;;;4978506;28;20085;-88
2023/07/15 13:54:35;;;;;;;4.90;2.00;;;24.70;65.20;;;;;;4955811;28;20042;-88
2023/07/15 13:57:01;;;;;;;3.95;1.80;;;24.80;64.80;;;;;;4978654;28;20056;-87
2023/07/15 13:59:26;;;;;;;3.58;1.75;;;24.80;65.00;;;;;;4962034;28;20068;-87
2023/07/15 14:01:53;;;;;;;4.00;1.98;;;25.00;64.70;;;;;;4965281;28;20066;-87
2023/07/15 14:04:19;;;;;;;5.25;1.80;;;25.00;64.60;;;;;;4964005;28;20108;-87
2023/07/15 14:06:48;;;;;;;6.32;2.22;;;25.10;64.80;;;;;;4972147;28;20122;-94
2023/07/15 14:09:15;;;;;;;4.25;1.70;;;25.20;64.80;;;;;;4957535;28;20125;-88
2023/07/15 14:11:45;;;;;;;5.43;1.95;;;25.20;64.60;;;;;;4979796;28;20131;-91
2023/07/15 14:14:15;;;;;;;3.67;1.50;;;25.30;64.70;;;;;;4994593;28;20415;-87
2023/07/15 14:16:41;;;;;;;7.57;1.65;;;25.50;64.10;;;;;;4976431;28;20073;-86
2023/07/15 14:19:07;;;;;;;3.38;2.03;;;25.50;64.40;;;;;;4971092;28;20046;-87
2023/07/15 14:21:33;;;;;;;4.35;1.85;;;25.50;64.10;;;;;;4979726;28;20058;-91
2023/07/15 14:24:05;;;;;;;8.27;1.70;;;25.40;64.00;;;;;;4947848;28;20137;-89
2023/07/15 14:26:32;;;;;;;4.85;2.08;;;25.20;64.00;;;;;;4975907;28;20316;-93
2023/07/15 14:28:58;;;;;;;5.43;1.80;;;25.00;64.00;;;;;;4960568;28;20053;-88
2023/07/15 14:31:24;;;;;;;6.55;1.92;;;24.90;64.40;;;;;;4978519;28;20055;-89
2023/07/15 14:33:53;;;;;;;5.72;1.83;;;24.80;64.60;;;;;;4977256;28;20073;-87
2023/07/15 14:36:23;;;;;;;3.40;1.52;;;24.70;64.70;;;;;;4974170;28;20051;-93
2023/07/15 14:39:08;;;;;;;;;;;;;;;;;;;;;
2023/07/15 14:45:01;;;;;;;5.80;1.70;;;24.50;64.70;;;;;;4942686;28;20050;-95
2023/07/15 14:47:37;;;;;;;4.85;1.73;;;24.50;65.10;;;;;;4951412;28;20050;-95
2023/07/15 14:50:04;;;;;;;4.15;2.00;;;24.60;64.20;;;;;;4956799;28;20089;-92
2023/07/15 14:52:30;;;;;;;4.25;1.73;;;24.60;63.70;;;;;;4954618;28;20483;-93
2023/07/15 14:55:05;;;;;;;7.00;1.90;;;24.70;63.60;;;;;;4961972;28;20056;-92
2023/07/15 14:57:39;;;;;;;3.60;1.75;;;24.70;63.20;;;;;;4966160;28;20066;-94